sensor_id;sensor_type;location;lat;lon;timestamp;temperature;humidity
12315;DHT22;23886;46.614;14.276;2023-02-01T00:02:25;-4.80;99.90
12315;DHT22;23886;46.614;14.276;2023-02-01T00:04:52;-4.80;99.90
12315;DHT22;23886;46.614;14.276;2023-02-01T00:07:19;-4.70;99.90
12315;DHT22;23886;46.614;14.276;2023-02-01T00:09:46;-4.70;99.90
12315;DHT22;23886;46.614;14.276;2023-02-01T00:12:15;-4.70;99.90
12315;DHT22;23886;46.614;14.276;2023-02-01T00:14:42;-4.90;99.90
12315;DHT22;23886;46.614;14.276;2023-02-01T00:17:08;-5.00;99.90
12315;DHT22;23886;46.614;14.276;2023-02-01T00:19:35;-5.00;99.90
12315;DHT22;23886;46.614;14.276;2023-02-01T00:22:02;-5.00;99.90
12315;DHT22;23886;46.614;14.276;2023-02-01T00:24:29;-4.90;99.90
12315;DHT22;23886;46.614;14.276;2023-02-01T00:26:56;-4.90;99.90
12315;DHT22;23886;46.614;14.276;2023-02-01T00:29:25;-4.90;99.90
12315;DHT22;23886;46.614;14.276;2023-02-01T00:31:52;-4.80;99.90
12315;DHT22;23886;46.614;14.276;2023-02-01T00:34:19;-4.60;99.90
12315;DHT22;23886;46.614;14.276;2023-02-01T00:36:47;-4.50;99.90
12315;DHT22;23886;46.614;14.276;2023-02-01T00:39:15;-4.80;99.90
12315;DHT22;23886;46.614;14.276;2023-02-01T00:41:42;-4.80;99.90
12315;DHT22;23886;46.614;14.276;2023-02-01T00:44:09;-4.90;99.90
12315;DHT22;23886;46.614;14.276;2023-02-01T00:46:38;-4.90;99.90
12315;DHT22;23886;46.614;14.276;2023-02-01T00:49:05;-4.90;99.90
12315;DHT22;23886;46.614;14.276;2023-02-01T00:51:33;-4.90;99.90
12315;DHT22;23886;46.614;14.276;2023-02-01T00:54:00;-4.90;99.90
12315;DHT22;23886;46.614;14.276;2023-02-01T00:56:28;-4.90;99.90
12315;DHT22;23886;46.614;14.276;2023-02-01T00:58:55;-5.10;99.90
12315;DHT22;23886;46.614;14.276;2023-02-01T01:01:24;-5.10;99.90
12315;DHT22;23886;46.614;14.276;2023-02-01T01:03:54;-5.30;99.90
12315;DHT22;23886;46.614;14.276;2023-02-01T01:06:24;-5.40;99.90
12315;DHT22;23886;46.614;14.276;2023-02-01T01:08:52;-5.40;99.90
12315;DHT22;23886;46.614;14.276;2023-02-01T01:11:22;-5.20;99.90
12315;DHT22;23886;46.614;14.276;2023-02-01T01:13:50;-5.30;99.90
12315;DHT22;23886;46.614;14.276;2023-02-01T01:16:18;-5.30;99.90
12315;DHT22;23886;46.614;14.276;2023-02-01T01:18:46;-5.30;99.90
12315;DHT22;23886;46.614;14.276;2023-02-01T01:21:15;-5.30;99.90
12315;DHT22;23886;46.614;14.276;2023-02-01T01:23:43;-5.40;99.90
12315;DHT22;23886;46.614;14.276;2023-02-01T01:26:14;-5.30;99.90
12315;DHT22;23886;46.614;14.276;2023-02-01T01:28:42;-5.40;99.90
12315;DHT22;23886;46.614;14.276;2023-02-01T01:31:09;-5.50;99.90
12315;DHT22;23886;46.614;14.276;2023-02-01T01:33:36;-5.50;99.90
12315;DHT22;23886;46.614;14.276;2023-02-01T01:36:05;-5.60;99.90
12315;DHT22;23886;46.614;14.276;2023-02-01T01:38:33;-5.60;99.90
12315;DHT22;23886;46.614;14.276;2023-02-01T01:41:01;-5.50;99.90
12315;DHT22;23886;46.614;14.276;2023-02-01T01:43:47;-5.50;99.90
12315;DHT22;23886;46.614;14.276;2023-02-01T01:46:16;-5.60;99.90
12315;DHT22;23886;46.614;14.276;2023-02-01T01:48:43;-5.60;99.90
12315;DHT22;23886;46.614;14.276;2023-02-01T01:51:13;-5.70;99.90
12315;DHT22;23886;46.614;14.276;2023-02-01T01:53:45;-5.80;99.90
12315;DHT22;23886;46.614;14.276;2023-02-01T01:56:14;-5.90;99.90
12315;DHT22;23886;46.614;14.276;2023-02-01T01:58:41;-5.90;99.90
12315;DHT22;23886;46.614;14.276;2023-02-01T02:01:08;-5.70;99.90
12315;DHT22;23886;46.614;14.276;2023-02-01T02:03:39;-5.70;99.90
12315;DHT22;23886;46.614;14.276;2023-02-01T02:06:24;-5.70;99.90
12315;DHT22;23886;46.614;14.276;2023-02-01T02:11:22;-5.90;99.90
12315;DHT22;23886;46.614;14.276;2023-02-01T02:13:51;-5.70;99.90
12315;DHT22;23886;46.614;14.276;2023-02-01T02:16:28;-5.60;99.90
12315;DHT22;23886;46.614;14.276;2023-02-01T02:19:16;-5.60;99.90
12315;DHT22;23886;46.614;14.276;2023-02-01T02:22:04;-5.60;99.90
12315;DHT22;23886;46.614;14.276;2023-02-01T02:24:57;-5.60;99.90
12315;DHT22;23886;46.614;14.276;2023-02-01T02:27:37;-5.60;99.90
12315;DHT22;23886;46.614;14.276;2023-02-01T02:30:37;-3.90;99.90
12315;DHT22;23886;46.614;14.276;2023-02-01T02:36:19;-6.00;99.90
12315;DHT22;23886;46.614;14.276;2023-02-01T02:38:54;-6.10;99.90
12315;DHT22;23886;46.614;14.276;2023-02-01T02:41:31;-5.80;99.90
12315;DHT22;23886;46.614;14.276;2023-02-01T02:44:21;-5.70;99.90
12315;DHT22;23886;46.614;14.276;2023-02-01T02:47:13;-5.70;99.90
12315;DHT22;23886;46.614;14.276;2023-02-01T02:49:54;-5.90;99.90
12315;DHT22;23886;46.614;14.276;2023-02-01T02:52:45;-5.90;99.90
12315;DHT22;23886;46.614;14.276;2023-02-01T02:55:34;-5.90;99.90
12315;DHT22;23886;46.614;14.276;2023-02-01T02:58:05;-5.90;99.90
12315;DHT22;23886;46.614;14.276;2023-02-01T03:00:51;-6.00;99.90
12315;DHT22;23886;46.614;14.276;2023-02-01T03:03:37;-6.00;99.90
12315;DHT22;23886;46.614;14.276;2023-02-01T03:06:23;-6.10;99.90
12315;DHT22;23886;46.614;14.276;2023-02-01T03:08:54;-6.10;99.90
12315;DHT22;23886;46.614;14.276;2023-02-01T03:11:24;-6.00;99.90
12315;DHT22;23886;46.614;14.276;2023-02-01T03:14:14;-6.00;99.90
12315;DHT22;23886;46.614;14.276;2023-02-01T03:16:43;-6.20;99.90
12315;DHT22;23886;46.614;14.276;2023-02-01T03:19:17;-6.20;99.90
12315;DHT22;23886;46.614;14.276;2023-02-01T03:21:47;-6.30;99.90
12315;DHT22;23886;46.614;14.276;2023-02-01T03:24:20;-6.40;99.90
12315;DHT22;23886;46.614;14.276;2023-02-01T03:26:51;-6.50;99.90
12315;DHT22;23886;46.614;14.276;2023-02-01T03:29:22;-6.40;99.90
12315;DHT22;23886;46.614;14.276;2023-02-01T03:31:50;-6.40;99.90
12315;DHT22;23886;46.614;14.276;2023-02-01T03:34:17;-6.20;99.90
12315;DHT22;23886;46.614;14.276;2023-02-01T03:36:49;-6.30;99.90
12315;DHT22;23886;46.614;14.276;2023-02-01T03:39:22;-6.30;99.90
12315;DHT22;23886;46.614;14.276;2023-02-01T03:41:53;-6.40;99.90
12315;DHT22;23886;46.614;14.276;2023-02-01T03:44:24;-6.50;99.90
12315;DHT22;23886;46.614;14.276;2023-02-01T03:46:54;-6.40;99.90
12315;DHT22;23886;46.614;14.276;2023-02-01T03:49:26;-6.20;99.90
12315;DHT22;23886;46.614;14.276;2023-02-01T03:51:55;-6.10;99.90
12315;DHT22;23886;46.614;14.276;2023-02-01T03:54:25;-6.10;99.90
12315;DHT22;23886;46.614;14.276;2023-02-01T03:56:56;-6.00;99.90
12315;DHT22;23886;46.614;14.276;2023-02-01T03:59:24;-5.90;99.90
12315;DHT22;23886;46.614;14.276;2023-02-01T04:01:51;-6.00;99.90
12315;DHT22;23886;46.614;14.276;2023-02-01T04:04:18;-6.20;99.90
12315;DHT22;23886;46.614;14.276;2023-02-01T04:06:46;-6.20;99.90
12315;DHT22;23886;46.614;14.276;2023-02-01T04:09:13;-6.20;99.90
12315;DHT22;23886;46.614;14.276;2023-02-01T04:11:42;-6.30;99.90
12315;DHT22;23886;46.614;14.276;2023-02-01T04:14:09;-6.30;99.90
12315;DHT22;23886;46.614;14.276;2023-02-01T04:16:36;-6.30;99.90
12315;DHT22;23886;46.614;14.276;2023-02-01T04:19:03;-6.30;99.90
12315;DHT22;23886;46.614;14.276;2023-02-01T04:21:30;-6.20;99.90
12315;DHT22;23886;46.614;14.276;2023-02-01T04:23:57;-6.30;99.90
12315;DHT22;23886;46.614;14.276;2023-02-01T04:26:24;-6.30;99.90
12315;DHT22;23886;46.614;14.276;2023-02-01T04:28:52;-6.20;99.90
12315;DHT22;23886;46.614;14.276;2023-02-01T04:31:20;-6.20;99.90
12315;DHT22;23886;46.614;14.276;2023-02-01T04:33:51;-6.10;99.90
12315;DHT22;23886;46.614;14.276;2023-02-01T04:36:19;-6.20;99.90
12315;DHT22;23886;46.614;14.276;2023-02-01T04:38:47;-6.30;99.90
12315;DHT22;23886;46.614;14.276;2023-02-01T04:41:14;-6.40;99.90
12315;DHT22;23886;46.614;14.276;2023-02-01T04:43:44;-6.50;99.90
12315;DHT22;23886;46.614;14.276;2023-02-01T04:46:13;-6.20;99.90
12315;DHT22;23886;46.614;14.276;2023-02-01T04:48:40;-6.30;99.90
12315;DHT22;23886;46.614;14.276;2023-02-01T04:51:07;-6.50;99.90
12315;DHT22;23886;46.614;14.276;2023-02-01T04:53:34;-6.60;99.90
12315;DHT22;23886;46.614;14.276;2023-02-01T04:56:01;-6.60;99.90
12315;DHT22;23886;46.614;14.276;2023-02-01T04:58:28;-6.80;99.90
12315;DHT22;23886;46.614;14.276;2023-02-01T05:00:55;-7.00;99.90
12315;DHT22;23886;46.614;14.276;2023-02-01T05:03:24;-7.00;99.90
12315;DHT22;23886;46.614;14.276;2023-02-01T05:05:51;-7.00;99.90
12315;DHT22;23886;46.614;14.276;2023-02-01T05:08:19;-7.10;99.90
12315;DHT22;23886;46.614;14.276;2023-02-01T05:10:47;-7.20;99.90
12315;DHT22;23886;46.614;14.276;2023-02-01T05:13:14;-7.20;99.90
12315;DHT22;23886;46.614;14.276;2023-02-01T05:15:59;-7.30;99.90
12315;DHT22;23886;46.614;14.276;2023-02-01T05:18:27;-7.30;99.90
12315;DHT22;23886;46.614;14.276;2023-02-01T05:20:54;-7.40;99.90
12315;DHT22;23886;46.614;14.276;2023-02-01T05:23:21;-7.60;99.90
12315;DHT22;23886;46.614;14.276;2023-02-01T05:25:48;-7.50;99.90
12315;DHT22;23886;46.614;14.276;2023-02-01T05:28:15;-7.40;99.90
12315;DHT22;23886;46.614;14.276;2023-02-01T05:30:42;-7.20;99.90
12315;DHT22;23886;46.614;14.276;2023-02-01T05:33:09;-7.20;99.90
12315;DHT22;23886;46.614;14.276;2023-02-01T05:35:37;-7.20;99.90
12315;DHT22;23886;46.614;14.276;2023-02-01T05:38:04;-7.30;99.90
12315;DHT22;23886;46.614;14.276;2023-02-01T05:40:31;-7.30;99.90
12315;DHT22;23886;46.614;14.276;2023-02-01T05:42:58;-7.40;99.90
12315;DHT22;23886;46.614;14.276;2023-02-01T05:45:25;-7.20;99.90
12315;DHT22;23886;46.614;14.276;2023-02-01T05:47:52;-7.20;99.90
12315;DHT22;23886;46.614;14.276;2023-02-01T05:50:19;-7.10;99.90
12315;DHT22;23886;46.614;14.276;2023-02-01T05:52:47;-7.40;99.90
12315;DHT22;23886;46.614;14.276;2023-02-01T05:55:14;-7.50;99.90
12315;DHT22;23886;46.614;14.276;2023-02-01T05:57:41;-7.50;99.90
12315;DHT22;23886;46.614;14.276;2023-02-01T06:00:09;-7.40;99.90
12315;DHT22;23886;46.614;14.276;2023-02-01T06:02:37;-7.20;99.90
12315;DHT22;23886;46.614;14.276;2023-02-01T06:05:05;-7.20;99.90
12315;DHT22;23886;46.614;14.276;2023-02-01T06:07:32;-7.10;99.90
12315;DHT22;23886;46.614;14.276;2023-02-01T06:10:00;-7.00;99.90
12315;DHT22;23886;46.614;14.276;2023-02-01T06:12:27;-7.00;99.90
12315;DHT22;23886;46.614;14.276;2023-02-01T06:14:54;-7.00;99.90
12315;DHT22;23886;46.614;14.276;2023-02-01T06:17:21;-7.00;99.90
12315;DHT22;23886;46.614;14.276;2023-02-01T06:19:48;-7.20;99.90
12315;DHT22;23886;46.614;14.276;2023-02-01T06:22:15;-7.40;99.90
12315;DHT22;23886;46.614;14.276;2023-02-01T06:24:42;-7.40;99.90
12315;DHT22;23886;46.614;14.276;2023-02-01T06:27:11;-7.30;99.90
12315;DHT22;23886;46.614;14.276;2023-02-01T06:29:39;-7.40;99.90
12315;DHT22;23886;46.614;14.276;2023-02-01T06:32:06;-7.30;99.90
12315;DHT22;23886;46.614;14.276;2023-02-01T06:34:32;-7.30;99.90
12315;DHT22;23886;46.614;14.276;2023-02-01T06:37:00;-7.30;99.90
12315;DHT22;23886;46.614;14.276;2023-02-01T06:39:27;-7.40;99.90
12315;DHT22;23886;46.614;14.276;2023-02-01T06:41:54;-7.20;99.90
12315;DHT22;23886;46.614;14.276;2023-02-01T06:44:22;-7.10;99.90
12315;DHT22;23886;46.614;14.276;2023-02-01T06:46:49;-7.20;99.90
12315;DHT22;23886;46.614;14.276;2023-02-01T06:49:16;-7.30;99.90
12315;DHT22;23886;46.614;14.276;2023-02-01T06:51:43;-7.30;99.90
12315;DHT22;23886;46.614;14.276;2023-02-01T06:54:10;-7.30;99.90
12315;DHT22;23886;46.614;14.276;2023-02-01T06:56:37;-7.30;99.90
12315;DHT22;23886;46.614;14.276;2023-02-01T06:59:04;-7.30;99.90
12315;DHT22;23886;46.614;14.276;2023-02-01T07:01:33;-7.40;99.90
12315;DHT22;23886;46.614;14.276;2023-02-01T07:04:00;-7.50;99.90
12315;DHT22;23886;46.614;14.276;2023-02-01T07:06:27;-7.60;99.90
12315;DHT22;23886;46.614;14.276;2023-02-01T07:08:54;-7.40;99.90
12315;DHT22;23886;46.614;14.276;2023-02-01T07:11:22;-7.30;99.90
12315;DHT22;23886;46.614;14.276;2023-02-01T07:13:49;-7.20;99.90
12315;DHT22;23886;46.614;14.276;2023-02-01T07:16:18;-7.00;99.90
12315;DHT22;23886;46.614;14.276;2023-02-01T07:18:47;-7.00;99.90
12315;DHT22;23886;46.614;14.276;2023-02-01T07:21:14;-7.00;99.90
12315;DHT22;23886;46.614;14.276;2023-02-01T07:23:41;-7.20;99.90
12315;DHT22;23886;46.614;14.276;2023-02-01T07:26:11;-7.10;99.90
12315;DHT22;23886;46.614;14.276;2023-02-01T07:28:39;-7.40;99.90
12315;DHT22;23886;46.614;14.276;2023-02-01T07:31:07;-7.20;99.90
12315;DHT22;23886;46.614;14.276;2023-02-01T07:33:35;-7.30;99.90
12315;DHT22;23886;46.614;14.276;2023-02-01T07:36:05;-7.20;99.90
12315;DHT22;23886;46.614;14.276;2023-02-01T07:38:33;-6.90;99.90
12315;DHT22;23886;46.614;14.276;2023-02-01T07:41:01;-6.80;99.90
12315;DHT22;23886;46.614;14.276;2023-02-01T07:43:29;-6.60;99.90
12315;DHT22;23886;46.614;14.276;2023-02-01T07:45:56;-6.60;99.90
12315;DHT22;23886;46.614;14.276;2023-02-01T07:48:24;-6.60;99.90
12315;DHT22;23886;46.614;14.276;2023-02-01T07:50:57;-6.40;99.90
12315;DHT22;23886;46.614;14.276;2023-02-01T07:53:25;-6.20;99.90
12315;DHT22;23886;46.614;14.276;2023-02-01T07:55:52;-6.00;99.90
12315;DHT22;23886;46.614;14.276;2023-02-01T07:58:21;-5.90;99.90
12315;DHT22;23886;46.614;14.276;2023-02-01T08:00:48;-5.80;99.90
12315;DHT22;23886;46.614;14.276;2023-02-01T08:03:32;-5.80;99.90
12315;DHT22;23886;46.614;14.276;2023-02-01T08:05:59;-5.60;99.90
12315;DHT22;23886;46.614;14.276;2023-02-01T08:08:28;-5.60;99.90
12315;DHT22;23886;46.614;14.276;2023-02-01T08:10:57;-5.50;99.90
12315;DHT22;23886;46.614;14.276;2023-02-01T08:13:25;-5.20;99.90
12315;DHT22;23886;46.614;14.276;2023-02-01T08:15:51;-5.00;99.90
12315;DHT22;23886;46.614;14.276;2023-02-01T08:18:18;-4.90;99.90
12315;DHT22;23886;46.614;14.276;2023-02-01T08:20:46;-4.70;99.90
12315;DHT22;23886;46.614;14.276;2023-02-01T08:23:13;-4.60;99.90
12315;DHT22;23886;46.614;14.276;2023-02-01T08:25:41;-4.50;99.90
12315;DHT22;23886;46.614;14.276;2023-02-01T08:28:09;-4.40;99.90
12315;DHT22;23886;46.614;14.276;2023-02-01T08:30:37;-4.50;99.90
12315;DHT22;23886;46.614;14.276;2023-02-01T08:33:04;-4.50;99.90
12315;DHT22;23886;46.614;14.276;2023-02-01T08:35:34;-4.60;99.90
12315;DHT22;23886;46.614;14.276;2023-02-01T08:38:01;-4.70;99.90
12315;DHT22;23886;46.614;14.276;2023-02-01T08:40:28;-4.40;99.90
12315;DHT22;23886;46.614;14.276;2023-02-01T08:42:56;-4.50;99.90
12315;DHT22;23886;46.614;14.276;2023-02-01T08:45:25;-4.50;99.90
12315;DHT22;23886;46.614;14.276;2023-02-01T08:47:53;-4.40;99.90
12315;DHT22;23886;46.614;14.276;2023-02-01T08:50:21;-4.40;99.90
12315;DHT22;23886;46.614;14.276;2023-02-01T08:52:49;-4.20;99.90
12315;DHT22;23886;46.614;14.276;2023-02-01T08:55:16;-4.20;99.90
12315;DHT22;23886;46.614;14.276;2023-02-01T08:57:43;-4.10;99.90
12315;DHT22;23886;46.614;14.276;2023-02-01T09:00:14;-3.90;99.90
12315;DHT22;23886;46.614;14.276;2023-02-01T09:02:42;-3.90;99.90
12315;DHT22;23886;46.614;14.276;2023-02-01T09:05:09;-3.90;99.90
12315;DHT22;23886;46.614;14.276;2023-02-01T09:07:36;-3.70;99.90
12315;DHT22;23886;46.614;14.276;2023-02-01T09:10:04;-3.70;99.90
12315;DHT22;23886;46.614;14.276;2023-02-01T09:12:32;-3.80;99.90
12315;DHT22;23886;46.614;14.276;2023-02-01T09:14:59;-3.50;99.90
12315;DHT22;23886;46.614;14.276;2023-02-01T09:17:28;-3.40;99.90
12315;DHT22;23886;46.614;14.276;2023-02-01T09:19:55;-3.20;99.90
12315;DHT22;23886;46.614;14.276;2023-02-01T09:22:23;-3.30;99.90
12315;DHT22;23886;46.614;14.276;2023-02-01T09:24:49;-3.30;99.90
12315;DHT22;23886;46.614;14.276;2023-02-01T09:27:16;-3.30;99.90
12315;DHT22;23886;46.614;14.276;2023-02-01T09:29:43;-3.10;99.90
12315;DHT22;23886;46.614;14.276;2023-02-01T09:32:10;-2.90;99.90
12315;DHT22;23886;46.614;14.276;2023-02-01T09:34:39;-2.70;99.90
12315;DHT22;23886;46.614;14.276;2023-02-01T09:37:06;-2.50;99.90
12315;DHT22;23886;46.614;14.276;2023-02-01T09:39:33;-2.50;99.90
12315;DHT22;23886;46.614;14.276;2023-02-01T09:42:14;-2.40;99.90
12315;DHT22;23886;46.614;14.276;2023-02-01T09:44:52;-2.40;99.90
12315;DHT22;23886;46.614;14.276;2023-02-01T09:47:24;-2.20;99.90
12315;DHT22;23886;46.614;14.276;2023-02-01T09:49:58;-2.10;99.90
12315;DHT22;23886;46.614;14.276;2023-02-01T09:52:31;-2.10;99.90
12315;DHT22;23886;46.614;14.276;2023-02-01T09:55:01;-1.90;99.90
12315;DHT22;23886;46.614;14.276;2023-02-01T09:57:43;-1.70;99.90
12315;DHT22;23886;46.614;14.276;2023-02-01T10:00:18;-1.50;99.90
12315;DHT22;23886;46.614;14.276;2023-02-01T10:02:47;-1.40;99.90
12315;DHT22;23886;46.614;14.276;2023-02-01T10:05:19;-1.10;99.90
12315;DHT22;23886;46.614;14.276;2023-02-01T10:07:56;-0.90;99.90
12315;DHT22;23886;46.614;14.276;2023-02-01T10:10:31;-1.00;99.90
12315;DHT22;23886;46.614;14.276;2023-02-01T10:16:11;-0.50;99.90
12315;DHT22;23886;46.614;14.276;2023-02-01T10:18:52;-0.60;99.90
12315;DHT22;23886;46.614;14.276;2023-02-01T10:21:31;-0.40;99.90
12315;DHT22;23886;46.614;14.276;2023-02-01T10:24:25;-0.40;99.90
12315;DHT22;23886;46.614;14.276;2023-02-01T10:26:59;-0.30;99.90
12315;DHT22;23886;46.614;14.276;2023-02-01T10:29:33;-0.20;99.90
12315;DHT22;23886;46.614;14.276;2023-02-01T10:32:02;0.00;99.90
12315;DHT22;23886;46.614;14.276;2023-02-01T10:34:32;0.10;99.90
12315;DHT22;23886;46.614;14.276;2023-02-01T10:37:09;0.30;99.90
12315;DHT22;23886;46.614;14.276;2023-02-01T10:39:38;0.20;99.90
12315;DHT22;23886;46.614;14.276;2023-02-01T10:42:05;0.40;99.90
12315;DHT22;23886;46.614;14.276;2023-02-01T10:44:36;0.50;99.90
12315;DHT22;23886;46.614;14.276;2023-02-01T10:47:09;0.60;99.90
12315;DHT22;23886;46.614;14.276;2023-02-01T10:49:39;0.80;99.90
12315;DHT22;23886;46.614;14.276;2023-02-01T10:52:13;0.70;99.90
12315;DHT22;23886;46.614;14.276;2023-02-01T10:54:43;0.60;99.90
12315;DHT22;23886;46.614;14.276;2023-02-01T10:57:19;0.70;99.90
12315;DHT22;23886;46.614;14.276;2023-02-01T10:59:46;0.60;99.90
12315;DHT22;23886;46.614;14.276;2023-02-01T11:02:30;0.50;99.90
12315;DHT22;23886;46.614;14.276;2023-02-01T11:05:01;0.40;99.90
12315;DHT22;23886;46.614;14.276;2023-02-01T11:07:31;0.70;99.90
12315;DHT22;23886;46.614;14.276;2023-02-01T11:09:59;1.00;99.90
12315;DHT22;23886;46.614;14.276;2023-02-01T11:12:29;1.20;99.90
12315;DHT22;23886;46.614;14.276;2023-02-01T11:15:03;1.10;99.90
12315;DHT22;23886;46.614;14.276;2023-02-01T11:17:34;1.20;99.90
12315;DHT22;23886;46.614;14.276;2023-02-01T11:20:04;1.40;99.90
12315;DHT22;23886;46.614;14.276;2023-02-01T11:22:33;1.30;99.90
12315;DHT22;23886;46.614;14.276;2023-02-01T11:25:06;1.60;99.90
12315;DHT22;23886;46.614;14.276;2023-02-01T11:27:35;1.70;99.90
12315;DHT22;23886;46.614;14.276;2023-02-01T11:30:03;1.80;99.90
12315;DHT22;23886;46.614;14.276;2023-02-01T11:32:31;2.00;99.90
12315;DHT22;23886;46.614;14.276;2023-02-01T11:35:01;2.10;99.90
12315;DHT22;23886;46.614;14.276;2023-02-01T11:37:31;2.40;99.90
12315;DHT22;23886;46.614;14.276;2023-02-01T11:40:03;2.40;99.90
12315;DHT22;23886;46.614;14.276;2023-02-01T11:42:30;2.40;99.90
12315;DHT22;23886;46.614;14.276;2023-02-01T11:45:18;2.40;99.90
12315;DHT22;23886;46.614;14.276;2023-02-01T11:47:46;2.50;99.90
12315;DHT22;23886;46.614;14.276;2023-02-01T11:50:16;2.60;99.90
12315;DHT22;23886;46.614;14.276;2023-02-01T11:53:05;2.80;99.90
12315;DHT22;23886;46.614;14.276;2023-02-01T11:55:46;2.70;99.90
12315;DHT22;23886;46.614;14.276;2023-02-01T11:58:39;2.80;99.90
12315;DHT22;23886;46.614;14.276;2023-02-01T12:01:21;3.10;99.90
12315;DHT22;23886;46.614;14.276;2023-02-01T12:04:01;3.10;99.90
12315;DHT22;23886;46.614;14.276;2023-02-01T12:06:41;2.70;99.90
12315;DHT22;23886;46.614;14.276;2023-02-01T12:12:11;2.70;99.90
12315;DHT22;23886;46.614;14.276;2023-02-01T12:15:03;2.70;99.90
12315;DHT22;23886;46.614;14.276;2023-02-01T12:17:54;2.50;99.90
12315;DHT22;23886;46.614;14.276;2023-02-01T12:23:33;2.60;99.90
12315;DHT22;23886;46.614;14.276;2023-02-01T12:26:27;2.70;99.90
12315;DHT22;23886;46.614;14.276;2023-02-01T12:29:11;2.90;99.90
12315;DHT22;23886;46.614;14.276;2023-02-01T12:32:00;2.80;99.90
12315;DHT22;23886;46.614;14.276;2023-02-01T12:34:57;3.00;99.90
12315;DHT22;23886;46.614;14.276;2023-02-01T12:37:37;3.30;99.90
12315;DHT22;23886;46.614;14.276;2023-02-01T12:40:20;3.50;99.90
12315;DHT22;23886;46.614;14.276;2023-02-01T12:42:57;3.80;99.90
12315;DHT22;23886;46.614;14.276;2023-02-01T12:45:31;3.90;99.90
12315;DHT22;23886;46.614;14.276;2023-02-01T12:48:03;3.80;99.90
12315;DHT22;23886;46.614;14.276;2023-02-01T12:50:41;3.80;99.90
12315;DHT22;23886;46.614;14.276;2023-02-01T12:53:15;4.20;99.90
12315;DHT22;23886;46.614;14.276;2023-02-01T12:55:49;4.50;99.90
12315;DHT22;23886;46.614;14.276;2023-02-01T12:58:20;4.50;99.90
12315;DHT22;23886;46.614;14.276;2023-02-01T13:01:00;4.30;99.90
12315;DHT22;23886;46.614;14.276;2023-02-01T13:03:35;4.10;99.90
12315;DHT22;23886;46.614;14.276;2023-02-01T13:06:09;4.20;99.90
12315;DHT22;23886;46.614;14.276;2023-02-01T13:08:43;4.50;99.90
12315;DHT22;23886;46.614;14.276;2023-02-01T13:11:15;4.40;99.90
12315;DHT22;23886;46.614;14.276;2023-02-01T13:13:52;4.70;99.90
12315;DHT22;23886;46.614;14.276;2023-02-01T13:16:26;4.40;99.90
12315;DHT22;23886;46.614;14.276;2023-02-01T13:19:02;4.20;99.90
12315;DHT22;23886;46.614;14.276;2023-02-01T13:21:34;4.30;99.90
12315;DHT22;23886;46.614;14.276;2023-02-01T13:24:04;4.20;99.90
12315;DHT22;23886;46.614;14.276;2023-02-01T13:26:31;4.40;99.90
12315;DHT22;23886;46.614;14.276;2023-02-01T13:29:00;4.40;99.90
12315;DHT22;23886;46.614;14.276;2023-02-01T13:34:53;4.60;99.90
12315;DHT22;23886;46.614;14.276;2023-02-01T13:40:31;5.00;99.90
12315;DHT22;23886;46.614;14.276;2023-02-01T13:43:02;5.10;99.90
12315;DHT22;23886;46.614;14.276;2023-02-01T13:45:34;5.30;99.90
12315;DHT22;23886;46.614;14.276;2023-02-01T13:48:06;5.70;99.70
12315;DHT22;23886;46.614;14.276;2023-02-01T13:50:42;5.90;98.80
12315;DHT22;23886;46.614;14.276;2023-02-01T13:53:17;5.40;98.40
12315;DHT22;23886;46.614;14.276;2023-02-01T13:55:46;6.00;99.10
12315;DHT22;23886;46.614;14.276;2023-02-01T13:58:19;6.60;98.30
12315;DHT22;23886;46.614;14.276;2023-02-01T14:00:47;7.40;97.80
12315;DHT22;23886;46.614;14.276;2023-02-01T14:03:20;7.90;96.40
12315;DHT22;23886;46.614;14.276;2023-02-01T14:08:45;8.10;95.30
12315;DHT22;23886;46.614;14.276;2023-02-01T14:11:39;8.60;94.30
12315;DHT22;23886;46.614;14.276;2023-02-01T14:17:39;9.70;92.70
12315;DHT22;23886;46.614;14.276;2023-02-01T14:23:24;8.60;92.90
12315;DHT22;23886;46.614;14.276;2023-02-01T14:26:08;9.70;93.20
12315;DHT22;23886;46.614;14.276;2023-02-01T14:28:39;10.60;90.20
12315;DHT22;23886;46.614;14.276;2023-02-01T14:31:25;10.00;90.30
12315;DHT22;23886;46.614;14.276;2023-02-01T14:33:57;10.70;90.60
12315;DHT22;23886;46.614;14.276;2023-02-01T14:36:26;11.00;89.80
12315;DHT22;23886;46.614;14.276;2023-02-01T14:39:26;11.20;88.40
12315;DHT22;23886;46.614;14.276;2023-02-01T14:41:56;10.30;90.00
12315;DHT22;23886;46.614;14.276;2023-02-01T14:44:30;11.40;88.30
12315;DHT22;23886;46.614;14.276;2023-02-01T14:47:31;10.70;88.80
12315;DHT22;23886;46.614;14.276;2023-02-01T14:52:51;12.20;86.20
12315;DHT22;23886;46.614;14.276;2023-02-01T14:55:32;9.70;90.20
12315;DHT22;23886;46.614;14.276;2023-02-01T14:58:02;9.90;91.00
12315;DHT22;23886;46.614;14.276;2023-02-01T15:00:32;8.70;91.10
12315;DHT22;23886;46.614;14.276;2023-02-01T15:03:21;8.20;92.80
12315;DHT22;23886;46.614;14.276;2023-02-01T15:05:55;9.60;91.90
12315;DHT22;23886;46.614;14.276;2023-02-01T15:08:25;9.90;90.80
12315;DHT22;23886;46.614;14.276;2023-02-01T15:10:55;10.40;90.10
12315;DHT22;23886;46.614;14.276;2023-02-01T15:13:24;10.40;87.40
12315;DHT22;23886;46.614;14.276;2023-02-01T15:16:08;10.30;90.00
12315;DHT22;23886;46.614;14.276;2023-02-01T15:18:36;11.60;88.20
12315;DHT22;23886;46.614;14.276;2023-02-01T15:21:04;10.50;88.40
12315;DHT22;23886;46.614;14.276;2023-02-01T15:23:32;10.10;88.60
12315;DHT22;23886;46.614;14.276;2023-02-01T15:26:01;9.50;90.90
12315;DHT22;23886;46.614;14.276;2023-02-01T15:28:28;9.00;90.80
12315;DHT22;23886;46.614;14.276;2023-02-01T15:30:58;7.80;92.30
12315;DHT22;23886;46.614;14.276;2023-02-01T15:33:26;6.60;93.60
12315;DHT22;23886;46.614;14.276;2023-02-01T15:35:55;5.40;94.80
12315;DHT22;23886;46.614;14.276;2023-02-01T15:38:37;4.70;96.90
12315;DHT22;23886;46.614;14.276;2023-02-01T15:41:09;4.60;97.20
12315;DHT22;23886;46.614;14.276;2023-02-01T15:43:39;3.80;98.20
12315;DHT22;23886;46.614;14.276;2023-02-01T15:46:10;3.60;99.50
12315;DHT22;23886;46.614;14.276;2023-02-01T15:48:42;3.00;99.40
12315;DHT22;23886;46.614;14.276;2023-02-01T15:51:15;2.80;99.90
12315;DHT22;23886;46.614;14.276;2023-02-01T15:53:50;2.80;99.90
12315;DHT22;23886;46.614;14.276;2023-02-01T15:56:23;2.40;99.90
12315;DHT22;23886;46.614;14.276;2023-02-01T15:58:54;2.20;99.90
12315;DHT22;23886;46.614;14.276;2023-02-01T16:01:22;2.10;99.90
12315;DHT22;23886;46.614;14.276;2023-02-01T16:03:50;1.80;99.90
12315;DHT22;23886;46.614;14.276;2023-02-01T16:06:29;1.70;99.90
12315;DHT22;23886;46.614;14.276;2023-02-01T16:09:02;1.80;99.90
12315;DHT22;23886;46.614;14.276;2023-02-01T16:11:32;1.70;99.90
12315;DHT22;23886;46.614;14.276;2023-02-01T16:14:00;1.50;99.90
12315;DHT22;23886;46.614;14.276;2023-02-01T16:16:28;1.30;99.90
12315;DHT22;23886;46.614;14.276;2023-02-01T16:18:55;1.00;99.90
12315;DHT22;23886;46.614;14.276;2023-02-01T16:21:22;0.90;99.90